Time;durP1;ratioP1;P1;durP2;ratioP2;P2;SDS_P1;SDS_P2;PMS_P1;PMS_P2;Temp;Humidity;BMP_temperature;BMP_pressure;BME280_temperature;BME280_humidity;BME280_pressure;Samples;Min_cycle;Max_cycle;Signal;HPM_P1;HPM_P2
2021/07/19 00:00:35;;;;;;;8.93;7.32;;;;;;;20.79;67.19;98134.81;5137473;27;20497;-89
2021/07/19 00:03:01;;;;;;;9.73;6.93;;;;;;;20.82;67.71;98142.69;5137640;27;20036;-92
2021/07/19 00:05:28;;;;;;;12.48;8.00;;;;;;;20.81;67.41;98130.13;5135754;27;20125;-93
2021/07/19 00:07:54;;;;;;;9.65;7.68;;;;;;;20.76;67.66;98135.06;5135994;27;20039;-91
2021/07/19 00:10:22;;;;;;;12.90;7.70;;;;;;;20.70;68.04;98130.97;5128910;27;20030;-91
2021/07/19 00:12:49;;;;;;;12.40;7.87;;;;;;;20.70;68.30;98149.03;5139419;27;20039;-92
2021/07/19 00:15:17;;;;;;;11.10;8.18;;;;;;;20.63;68.62;98148.66;5132625;27;20047;-92
2021/07/19 00:17:44;;;;;;;10.90;8.02;;;;;;;20.50;69.03;98128.97;5136892;27;20047;-90
2021/07/19 00:20:11;;;;;;;13.40;7.95;;;;;;;20.47;68.87;98121.97;5129930;27;20032;-90
2021/07/19 00:22:37;;;;;;;12.13;8.10;;;;;;;20.57;69.12;98135.63;5123386;27;20081;-91
2021/07/19 00:25:05;;;;;;;11.35;8.23;;;;;;;20.59;69.24;98139.09;5126503;27;20011;-91
2021/07/19 00:27:33;;;;;;;12.13;8.02;;;;;;;20.60;68.97;98137.22;5137320;27;20050;-91
2021/07/19 00:29:59;;;;;;;9.93;8.48;;;;;;;20.61;69.22;98136.28;5129830;27;20063;-91
2021/07/19 00:32:24;;;;;;;12.52;8.20;;;;;;;20.63;68.93;98145.13;5133085;28;20077;-90
2021/07/19 00:34:50;;;;;;;10.82;8.10;;;;;;;20.62;68.71;98128.03;5134208;28;20140;-91
2021/07/19 00:37:16;;;;;;;11.93;8.32;;;;;;;20.70;68.87;98155.31;5134945;27;20035;-92
2021/07/19 00:39:42;;;;;;;13.55;7.80;;;;;;;20.73;68.78;98159.59;5138364;27;20039;-91
2021/07/19 00:42:08;;;;;;;11.63;7.85;;;;;;;20.74;68.82;98158.63;5135587;27;20515;-92
2021/07/19 00:44:36;;;;;;;11.48;7.57;;;;;;;20.80;68.58;98149.19;5138230;27;20619;-91
2021/07/19 00:47:04;;;;;;;12.40;8.25;;;;;;;20.78;68.14;98140.34;5135595;27;20110;-92
2021/07/19 00:49:32;;;;;;;11.52;8.02;;;;;;;20.70;68.65;98136.38;5138087;27;20134;-91
2021/07/19 00:51:58;;;;;;;13.30;8.40;;;;;;;20.81;68.51;98156.31;5137816;27;20035;-92
2021/07/19 00:54:28;;;;;;;12.43;8.32;;;;;;;20.70;68.32;98140.94;5137732;27;20122;-91
2021/07/19 00:56:55;;;;;;;12.35;8.27;;;;;;;20.72;68.65;98147.94;5135380;27;20121;-91
2021/07/19 00:59:23;;;;;;;12.18;8.40;;;;;;;20.66;68.64;98131.34;5137181;27;20039;-91
2021/07/19 01:01:52;;;;;;;11.20;8.35;;;;;;;20.73;68.43;98148.78;5138390;27;20048;-91
2021/07/19 01:04:18;;;;;;;10.20;8.23;;;;;;;20.74;68.62;98155.94;5142046;27;20046;-91
2021/07/19 01:06:45;;;;;;;12.57;8.68;;;;;;;20.80;68.31;98160.00;5136212;27;20035;-92
2021/07/19 01:09:10;;;;;;;10.60;8.25;;;;;;;20.67;68.54;98150.16;5138701;27;20047;-91
2021/07/19 01:11:36;;;;;;;10.60;8.15;;;;;;;20.60;68.96;98140.81;5135386;27;20107;-91
2021/07/19 01:14:02;;;;;;;11.88;8.25;;;;;;;20.58;69.13;98133.78;5145554;27;20487;-91
2021/07/19 01:16:28;;;;;;;10.43;8.15;;;;;;;20.70;68.92;98140.94;5138657;27;20423;-91
2021/07/19 01:18:56;;;;;;;13.25;8.20;;;;;;;20.54;69.12;98119.66;5141924;27;20118;-90
2021/07/19 01:22:03;;;;;;;13.40;7.80;;;;;;;20.60;69.25;98140.81;5133072;27;20047;-90
2021/07/19 01:24:38;;;;;;;10.88;8.35;;;;;;;20.57;69.66;98150.97;5135915;27;20072;-92
2021/07/19 01:27:36;;;;;;;12.25;8.52;;;;;;;20.58;69.91;98153.59;5137366;27;20043;-93
2021/07/19 01:30:06;;;;;;;12.85;8.82;;;;;;;20.69;69.33;98152.75;5126567;27;20039;-91
2021/07/19 01:32:35;;;;;;;11.57;8.30;;;;;;;20.65;69.60;98137.75;5137307;27;20031;-92
2021/07/19 01:35:04;;;;;;;11.98;8.60;;;;;;;20.66;69.76;98139.47;5135934;27;20054;-91
2021/07/19 01:37:31;;;;;;;11.63;8.83;;;;;;;20.63;69.76;98134.31;5135709;27;20050;-92
2021/07/19 01:39:57;;;;;;;13.40;8.57;;;;;;;;;;5135302;27;20287;-91
2021/07/19 01:42:23;;;;;;;10.05;8.10;;;;;;;20.52;69.96;98137.81;5139395;27;20123;-91
2021/07/19 01:44:51;;;;;;;11.48;8.52;;;;;;;20.53;69.96;98143.06;5136973;27;20122;-91
2021/07/19 01:47:18;;;;;;;11.05;7.63;;;;;;;20.49;70.70;98140.75;5133357;27;20068;-91
2021/07/19 01:49:45;;;;;;;12.40;8.57;;;;;;;20.43;70.80;98144.78;5136690;27;20126;-92
2021/07/19 01:52:12;;;;;;;11.73;8.18;;;;;;;20.24;71.00;98112.94;5137224;27;20035;-91
2021/07/19 01:54:39;;;;;;;9.55;8.00;;;;;;;20.26;71.01;98132.59;5137000;27;20039;-92
2021/07/19 01:57:05;;;;;;;10.68;8.70;;;;;;;20.04;71.95;98127.13;5136673;27;20062;-91
2021/07/19 01:59:33;;;;;;;13.25;8.77;;;;;;;19.83;72.96;98127.75;5136856;27;20043;-90
2021/07/19 02:01:59;;;;;;;12.67;9.37;;;;;;;19.60;73.38;98113.25;5133877;27;20078;-92
2021/07/19 02:04:26;;;;;;;12.18;8.57;;;;;;;19.57;74.45;98137.75;5139368;27;20046;-93
2021/07/19 02:06:53;;;;;;;12.30;9.88;;;;;;;19.45;74.64;98136.84;5136173;27;20484;-92
2021/07/19 02:09:20;;;;;;;11.02;8.38;;;;;;;19.34;74.97;98149.38;5140658;27;20377;-92
2021/07/19 02:11:47;;;;;;;12.52;9.23;;;;;;;19.14;75.60;98121.16;5136901;27;20127;-92
2021/07/19 02:14:14;;;;;;;12.02;8.98;;;;;;;19.22;75.60;98156.53;5139871;27;20129;-93
2021/07/19 02:16:45;;;;;;;12.18;8.77;;;;;;;19.18;75.67;98152.31;5134488;27;20503;-92
2021/07/19 02:19:11;;;;;;;12.07;8.50;;;;;;;19.18;76.27;98165.81;5136913;27;20051;-91
2021/07/19 02:21:39;;;;;;;12.82;8.65;;;;;;;19.01;76.42;98148.13;5136855;27;20046;-93
2021/07/19 02:24:06;;;;;;;12.80;9.05;;;;;;;18.91;76.99;98139.88;5135498;27;20035;-91
2021/07/19 02:26:32;;;;;;;14.32;9.45;;;;;;;18.85;77.37;98143.84;5136731;27;20400;-91
2021/07/19 02:28:58;;;;;;;12.73;8.95;;;;;;;19.00;76.59;98160.75;5136355;27;20050;-90
2021/07/19 02:31:24;;;;;;;15.18;10.38;;;;;;;19.22;76.37;98165.47;5134089;27;20027;-92
2021/07/19 02:33:51;;;;;;;13.43;9.90;;;;;;;19.38;75.34;98143.63;5137048;27;20042;-91
2021/07/19 02:36:19;;;;;;;12.90;9.93;;;;;;;19.50;75.48;98161.63;5137572;27;20095;-91
2021/07/19 02:38:49;;;;;;;12.02;8.52;;;;;;;19.59;74.54;98154.69;5132841;27;20100;-91
2021/07/19 02:41:17;;;;;;;12.93;9.27;;;;;;;19.95;73.25;98166.47;5134582;27;20039;-90
2021/07/19 02:43:45;;;;;;;12.90;9.43;;;;;;;20.08;72.33;98163.66;5134553;27;20055;-91
2021/07/19 02:46:12;;;;;;;13.02;9.45;;;;;;;20.19;72.47;98166.44;5132920;27;20434;-90
2021/07/19 02:48:40;;;;;;;14.57;10.07;;;;;;;20.14;72.00;98165.91;5136073;27;20036;-90
2021/07/19 02:51:08;;;;;;;11.63;8.80;;;;;;;20.24;71.53;98156.13;5136180;27;20616;-92
2021/07/19 02:53:36;;;;;;;10.13;8.88;;;;;;;20.23;71.31;98151.72;5135726;27;20440;-90
2021/07/19 02:56:05;;;;;;;13.07;9.70;;;;;;;20.20;71.87;98156.50;5136432;27;20035;-92
2021/07/19 02:58:31;;;;;;;11.32;8.73;;;;;;;20.10;71.81;98146.41;5136104;27;20520;-91
2021/07/19 03:01:00;;;;;;;11.43;9.38;;;;;;;20.17;71.31;98146.78;5133412;27;20031;-92
2021/07/19 03:03:28;;;;;;;12.80;9.00;;;;;;;20.37;71.20;98168.72;5136250;27;20561;-91
2021/07/19 03:05:58;;;;;;;13.10;9.73;;;;;;;20.24;70.96;98144.50;5135194;27;20035;-91
2021/07/19 03:08:25;;;;;;;11.75;9.05;;;;;;;20.14;71.61;98141.63;5134905;27;20036;-91
2021/07/19 03:10:53;;;;;;;14.05;10.00;;;;;;;20.19;71.11;98138.56;5134274;27;20027;-90
2021/07/19 03:13:24;;;;;;;12.20;9.23;;;;;;;20.25;70.53;98147.03;5135051;27;20063;-90
2021/07/19 03:15:51;;;;;;;12.57;10.05;;;;;;;20.20;70.27;98135.75;5131614;27;20036;-90
2021/07/19 03:18:19;;;;;;;14.00;9.77;;;;;;;20.23;70.59;98150.84;5135499;27;20133;-92
2021/07/19 03:20:46;;;;;;;16.05;9.73;;;;;;;20.23;70.80;98158.94;5135468;27;20039;-91
2021/07/19 03:23:15;;;;;;;13.15;9.35;;;;;;;20.33;70.79;98183.44;5135827;27;20051;-91
2021/07/19 03:25:43;;;;;;;13.98;10.27;;;;;;;20.19;71.23;98185.34;5135769;27;20063;-92
2021/07/19 03:28:09;;;;;;;14.10;9.90;;;;;;;20.15;71.13;98159.56;5133834;27;20552;-92
2021/07/19 03:30:37;;;;;;;12.30;9.60;;;;;;;20.07;72.26;98188.94;5133186;27;20051;-91
2021/07/19 03:33:05;;;;;;;13.90;10.43;;;;;;;19.73;73.28;98177.13;5135638;28;20053;-92
2021/07/19 03:35:31;;;;;;;13.38;10.25;;;;;;;19.55;74.17;98179.31;5134913;28;20035;-90
2021/07/19 03:37:58;;;;;;;15.85;10.63;;;;;;;19.64;73.94;98192.97;5135531;28;20055;-91
2021/07/19 03:40:24;;;;;;;15.93;10.90;;;;;;;19.43;75.04;98176.53;5135447;28;20437;-91
2021/07/19 03:42:53;;;;;;;14.18;11.15;;;;;;;19.50;75.36;98187.72;5135878;27;20042;-91
2021/07/19 03:45:19;;;;;;;12.38;10.00;;;;;;;19.29;75.54;98165.88;5133183;28;20074;-91
2021/07/19 03:47:47;;;;;;;15.93;10.68;;;;;;;19.75;73.84;98189.50;5135349;28;20091;-91
2021/07/19 03:50:14;;;;;;;13.35;10.50;;;;;;;19.83;72.83;98164.66;5135379;27;20035;-90
2021/07/19 03:52:41;;;;;;;14.23;11.00;;;;;;;20.04;72.41;98181.94;5132622;28;20387;-90
2021/07/19 03:55:08;;;;;;;15.75;11.18;;;;;;;20.20;71.85;98180.78;5134502;28;20401;-90
2021/07/19 03:57:34;;;;;;;14.48;11.05;;;;;;;20.41;71.00;98189.97;5131050;28;20046;-91
2021/07/19 04:00:00;;;;;;;16.65;11.40;;;;;;;20.43;70.39;98176.34;5133742;28;20396;-91
2021/07/19 04:02:27;;;;;;;16.60;10.85;;;;;;;20.52;70.46;98190.00;5135332;27;20027;-89
2021/07/19 04:05:04;;;;;;;17.35;11.57;;;;;;;20.56;70.67;98198.72;5135274;27;20028;-91
2021/07/19 04:07:30;;;;;;;18.27;10.80;;;;;;;20.45;70.43;98174.34;5134417;28;20042;-91
2021/07/19 04:09:57;;;;;;;15.63;11.32;;;;;;;20.61;69.94;98185.75;5135464;27;20392;-92
2021/07/19 04:12:25;;;;;;;16.00;11.82;;;;;;;20.76;69.85;98205.31;5136403;27;20032;-93
2021/07/19 04:14:51;;;;;;;14.93;11.10;;;;;;;20.86;69.35;98210.84;5139118;27;20031;-91
2021/07/19 04:17:17;;;;;;;14.57;11.15;;;;;;;20.84;69.03;98191.19;5138632;27;20053;-91
2021/07/19 04:19:45;;;;;;;14.50;10.77;;;;;;;20.91;68.93;98197.84;5139531;27;20040;-91
2021/07/19 04:22:13;;;;;;;14.90;11.18;;;;;;;20.98;68.40;98187.41;5139512;27;20047;-91
2021/07/19 04:24:39;;;;;;;14.63;11.00;;;;;;;21.07;68.22;98194.78;5139141;27;20033;-91
2021/07/19 04:27:06;;;;;;;17.23;11.77;;;;;;;21.13;67.54;98203.28;5139000;27;20039;-92
2021/07/19 04:29:32;;;;;;;13.88;10.02;;;;;;;21.26;67.43;98208.56;5137585;27;20508;-90
2021/07/19 04:31:59;;;;;;;17.42;10.48;;;;;;;21.19;67.44;98193.81;5136842;27;20102;-92
2021/07/19 04:34:26;;;;;;;13.00;10.10;;;;;;;21.20;67.11;98190.13;5138655;27;20433;-91
2021/07/19 04:36:53;;;;;;;13.75;10.15;;;;;;;21.29;66.53;98197.50;5136293;27;20511;-90
2021/07/19 04:39:20;;;;;;;14.68;10.30;;;;;;;21.32;66.50;98197.25;5138893;27;20601;-90
2021/07/19 04:41:46;;;;;;;13.02;9.32;;;;;;;21.39;66.72;98210.31;5138911;27;20155;-91
2021/07/19 04:44:12;;;;;;;13.65;10.32;;;;;;;21.32;66.66;98199.13;5138403;27;20031;-91
2021/07/19 04:46:38;;;;;;;11.20;9.80;;;;;;;21.45;66.49;98213.41;5135940;27;20042;-91
2021/07/19 04:49:05;;;;;;;11.88;9.38;;;;;;;21.38;66.24;98197.75;5138855;27;20029;-93
2021/07/19 04:51:31;;;;;;;12.25;9.55;;;;;;;21.52;66.39;98217.31;5138118;27;20027;-90
2021/07/19 04:53:59;;;;;;;15.07;9.32;;;;;;;21.41;66.31;98205.63;5138201;27;20031;-91
2021/07/19 04:56:29;;;;;;;12.77;9.65;;;;;;;21.43;65.94;98204.53;5138219;27;20035;-92
2021/07/19 04:58:55;;;;;;;13.55;9.55;;;;;;;21.44;66.65;98200.00;5137283;27;20036;-91
2021/07/19 05:01:24;;;;;;;14.45;9.68;;;;;;;21.52;66.29;98211.91;5134643;27;20092;-91
2021/07/19 05:03:51;;;;;;;;;;;;;;;21.63;66.41;98215.59;5138039;27;20091;-92
2021/07/19 05:06:18;;;;;;;14.50;10.15;;;;;;;21.70;66.19;98223.06;5136305;27;19919;-91
2021/07/19 05:08:47;;;;;;;15.05;10.02;;;;;;;21.83;66.08;98225.66;5137842;27;20401;-90
2021/07/19 05:11:13;;;;;;;;;;;;;;;22.28;63.91;98228.28;5138855;27;20452;-90
2021/07/19 05:13:41;;;;;;;12.95;8.70;;;;;;;22.81;62.30;98216.56;5138305;27;19927;-91
2021/07/19 05:16:07;;;;;;;13.70;8.57;;;;;;;23.17;61.01;98203.53;5137732;27;20131;-91
2021/07/19 05:18:34;;;;;;;12.98;8.50;;;;;;;23.39;60.09;98210.63;5138329;27;20035;-92
2021/07/19 05:21:00;;;;;;;10.57;7.97;;;;;;;23.83;59.03;98232.13;5138317;27;20496;-91
2021/07/19 05:23:26;;;;;;;13.70;8.38;;;;;;;23.72;59.20;98224.91;5137540;27;20062;-91
2021/07/19 05:25:53;;;;;;;11.82;8.48;;;;;;;23.73;58.90;98223.94;5137866;27;20043;-91
2021/07/19 05:28:19;;;;;;;13.70;7.93;;;;;;;23.68;59.51;98215.31;5138026;27;20047;-92
2021/07/19 05:30:48;;;;;;;14.32;9.15;;;;;;;23.82;58.45;98227.69;5130788;27;20039;-92
2021/07/19 05:33:16;;;;;;;13.02;8.80;;;;;;;23.35;60.10;98228.19;5137442;27;20095;-93
2021/07/19 05:35:42;;;;;;;14.63;8.70;;;;;;;22.96;62.04;98242.34;5136732;27;20033;-90
2021/07/19 05:38:08;;;;;;;12.60;8.82;;;;;;;22.82;61.85;98239.13;5136929;27;20039;-90
2021/07/19 05:40:34;;;;;;;13.27;9.27;;;;;;;22.70;62.72;98238.31;5136178;27;20053;-91
2021/07/19 05:43:01;;;;;;;11.65;8.07;;;;;;;22.68;62.43;98230.31;5137962;27;20035;-92
2021/07/19 05:45:27;;;;;;;13.70;9.13;;;;;;;22.63;62.65;98237.97;5136132;27;20123;-91
2021/07/19 05:47:55;;;;;;;13.40;9.23;;;;;;;22.58;62.73;98223.97;5137691;27;20157;-91
2021/07/19 05:50:21;;;;;;;12.23;8.50;;;;;;;22.74;62.97;98253.31;5137715;27;20039;-92
2021/07/19 05:52:47;;;;;;;13.20;8.88;;;;;;;23.06;61.40;98249.75;5137824;27;20066;-91
2021/07/19 05:55:13;;;;;;;12.00;8.43;;;;;;;23.41;60.02;98246.63;5138064;27;20158;-91
2021/07/19 05:57:39;;;;;;;11.52;8.85;;;;;;;23.76;59.47;98237.25;5137571;27;20035;-92
2021/07/19 06:00:10;;;;;;;10.93;8.52;;;;;;;24.13;58.72;98225.75;5136300;27;20114;-93
2021/07/19 06:02:36;;;;;;;10.75;8.63;;;;;;;24.55;56.90;98242.72;5137860;27;20379;-91
2021/07/19 06:05:05;;;;;;;13.30;8.77;;;;;;;24.41;57.63;98240.38;5137555;27;20043;-91
2021/07/19 06:07:31;;;;;;;12.88;8.80;;;;;;;24.22;57.83;98241.22;5138341;27;20043;-92
2021/07/19 06:10:00;;;;;;;14.75;9.38;;;;;;;24.02;58.46;98243.03;5137738;27;20015;-92
2021/07/19 06:12:26;;;;;;;10.90;8.93;;;;;;;24.18;58.24;98248.78;5137366;27;20095;-90
2021/07/19 06:14:52;;;;;;;12.35;8.60;;;;;;;24.52;57.22;98248.41;5136493;27;20096;-94
2021/07/19 06:17:20;;;;;;;13.40;8.40;;;;;;;24.21;57.56;98233.22;5137649;27;20039;-94
2021/07/19 06:19:45;;;;;;;11.40;8.57;;;;;;;24.36;57.83;98238.09;5137596;27;20062;-94
2021/07/19 06:22:13;;;;;;;11.68;8.25;;;;;;;24.52;57.46;98255.72;5137591;27;20023;-93
2021/07/19 06:24:39;;;;;;;10.93;8.00;;;;;;;24.58;57.68;98238.84;5137290;27;20050;-92
2021/07/19 06:27:06;;;;;;;11.82;8.77;;;;;;;25.07;55.84;98250.56;5137381;27;20039;-92
2021/07/19 06:29:32;;;;;;;11.07;8.38;;;;;;;24.96;55.93;98258.84;5136590;27;20485;-92
2021/07/19 06:32:00;;;;;;;13.05;8.07;;;;;;;25.02;55.61;98241.94;5136222;27;20122;-93
2021/07/19 06:34:26;;;;;;;12.48;7.90;;;;;;;24.67;56.33;98243.41;5136944;27;20047;-92
2021/07/19 06:36:52;;;;;;;13.63;8.43;;;;;;;24.90;55.75;98265.75;5137015;27;20121;-93
2021/07/19 06:39:19;;;;;;;11.30;8.85;;;;;;;24.79;56.44;98241.44;5137200;27;20032;-93
2021/07/19 06:41:45;;;;;;;12.25;8.68;;;;;;;25.08;55.21;98246.81;5136770;27;20039;-94
2021/07/19 06:44:11;;;;;;;11.32;8.35;;;;;;;24.78;55.63;98242.41;5137185;27;20045;-93
2021/07/19 06:46:37;;;;;;;15.48;8.82;;;;;;;24.67;55.63;98231.69;5136192;27;20043;-93
2021/07/19 06:49:03;;;;;;;13.93;7.93;;;;;;;24.92;55.43;98265.59;5135170;27;20050;-92
2021/07/19 06:51:30;;;;;;;12.63;7.45;;;;;;;25.01;55.01;98235.66;5137295;27;20090;-92
2021/07/19 06:53:55;;;;;;;14.88;8.38;;;;;;;24.79;56.06;98253.16;5136774;27;20058;-89
2021/07/19 06:56:23;;;;;;;10.68;7.75;;;;;;;25.15;54.59;98250.66;5136570;27;20067;-91
2021/07/19 06:58:49;;;;;;;11.07;7.70;;;;;;;25.00;55.68;98247.56;5137442;27;20031;-90
2021/07/19 07:01:15;;;;;;;11.73;8.00;;;;;;;25.25;54.78;98255.28;5135029;27;20496;-92
2021/07/19 07:03:40;;;;;;;11.55;7.68;;;;;;;25.74;53.75;98269.56;5135443;27;20054;-92
2021/07/19 07:06:06;;;;;;;10.15;6.85;;;;;;;25.71;52.66;98253.53;5136670;27;20035;-91
2021/07/19 07:08:32;;;;;;;9.55;6.55;;;;;;;25.55;51.96;98241.41;5136487;27;20393;-92
2021/07/19 07:10:58;;;;;;;9.25;6.25;;;;;;;25.83;51.08;98260.50;5136696;27;20046;-91
2021/07/19 07:13:26;;;;;;;10.20;6.30;;;;;;;25.57;51.06;98261.19;5136887;27;20099;-92
2021/07/19 07:15:52;;;;;;;10.95;6.13;;;;;;;25.90;50.67;98249.91;5135712;27;20023;-91
2021/07/19 07:18:17;;;;;;;8.90;6.60;;;;;;;26.16;50.11;98247.31;5136211;27;20485;-92
2021/07/19 07:20:43;;;;;;;10.73;6.18;;;;;;;25.95;50.82;98240.25;5135655;27;20047;-91
2021/07/19 07:23:09;;;;;;;9.15;6.22;;;;;;;25.94;50.70;98234.97;5136068;27;20480;-91
2021/07/19 07:25:35;;;;;;;9.50;6.20;;;;;;;25.97;51.51;98246.41;5136580;27;20388;-92
2021/07/19 07:28:01;;;;;;;10.13;6.32;;;;;;;25.83;51.69;98252.34;5136845;27;20060;-93
2021/07/19 07:30:28;;;;;;;11.32;6.47;;;;;;;26.09;50.91;98246.19;5134991;27;20520;-89
2021/07/19 07:32:54;;;;;;;12.65;6.55;;;;;;;26.00;50.74;98258.84;5136466;27;20399;-90
2021/07/19 07:35:20;;;;;;;10.90;6.32;;;;;;;26.01;49.64;98242.38;5136132;28;20126;-92
2021/07/19 07:37:46;;;;;;;8.73;6.20;;;;;;;26.05;50.19;98229.31;5136736;28;20051;-93
2021/07/19 07:40:14;;;;;;;8.07;5.95;;;;;;;26.40;49.00;98227.63;5136519;27;20122;-92
2021/07/19 07:42:40;;;;;;;8.80;6.07;;;;;;;26.69;47.90;98232.84;5135922;28;20133;-92
2021/07/19 07:45:08;;;;;;;9.00;6.10;;;;;;;26.95;48.57;98251.16;5134882;27;20031;-92
2021/07/19 07:47:36;;;;;;;11.88;6.22;;;;;;;26.61;48.53;98224.63;5138463;27;20043;-91
2021/07/19 07:50:02;;;;;;;10.95;6.78;;;;;;;26.98;47.46;98246.25;5139357;27;20019;-91
2021/07/19 07:52:27;;;;;;;11.35;6.78;;;;;;;26.07;48.38;98226.41;5141481;27;20103;-92
2021/07/19 07:54:53;;;;;;;11.23;7.22;;;;;;;26.41;47.54;98221.16;5138493;27;20480;-92
2021/07/19 07:57:19;;;;;;;9.90;6.78;;;;;;;26.27;46.63;98222.56;5140574;27;20054;-92
2021/07/19 07:59:45;;;;;;;10.00;6.57;;;;;;;26.71;45.37;98243.63;5140359;27;20370;-93
2021/07/19 08:02:11;;;;;;;12.32;7.10;;;;;;;27.02;45.03;98239.47;5138861;27;20046;-91
2021/07/19 08:04:39;;;;;;;10.25;7.25;;;;;;;26.33;46.50;98243.75;5140942;27;20142;-93
2021/07/19 08:07:05;;;;;;;9.63;6.75;;;;;;;26.98;45.34;98234.47;5140194;27;20035;-90
2021/07/19 08:09:31;;;;;;;10.48;6.57;;;;;;;27.27;44.43;98228.75;5139791;27;20055;-93
2021/07/19 08:11:59;;;;;;;9.32;6.07;;;;;;;27.48;43.87;98224.75;5140337;27;20043;-95
2021/07/19 08:14:25;;;;;;;13.15;6.40;;;;;;;27.57;43.26;98232.00;5140043;27;20109;-90
2021/07/19 08:16:52;;;;;;;12.48;6.72;;;;;;;27.62;43.33;98240.53;5137172;27;20062;-92
2021/07/19 08:19:18;;;;;;;12.70;6.90;;;;;;;27.46;42.82;98252.25;5138236;27;20096;-92
2021/07/19 08:21:46;;;;;;;12.32;6.40;;;;;;;27.31;43.58;98249.25;5139707;27;20039;-92
2021/07/19 08:24:12;;;;;;;8.52;5.97;;;;;;;27.65;43.58;98259.31;5139755;27;20043;-91
2021/07/19 08:26:38;;;;;;;12.10;6.90;;;;;;;27.77;42.75;98270.84;5139389;27;20051;-91
2021/07/19 08:29:05;;;;;;;14.10;9.70;;;;;;;27.55;43.08;98259.47;5138222;27;20104;-93
2021/07/19 08:31:31;;;;;;;12.05;7.60;;;;;;;27.66;43.15;98261.91;5137626;27;20484;-94
2021/07/19 08:33:58;;;;;;;10.70;8.30;;;;;;;27.82;42.96;98232.94;5139712;27;20039;-92
2021/07/19 08:36:24;;;;;;;11.18;6.90;;;;;;;28.12;41.81;98258.03;5139538;27;20434;-92
2021/07/19 08:38:51;;;;;;;13.23;6.53;;;;;;;28.01;42.11;98243.66;5139319;27;20103;-93
2021/07/19 08:41:18;;;;;;;15.07;10.67;;;;;;;28.23;42.76;98269.50;5139869;27;20118;-91
2021/07/19 08:43:45;;;;;;;10.48;7.15;;;;;;;28.58;41.35;98261.25;5139493;27;20046;-93
2021/07/19 08:46:11;;;;;;;9.32;6.00;;;;;;;28.21;41.43;98259.78;5137997;27;20065;-91
2021/07/19 08:48:37;;;;;;;9.65;6.93;;;;;;;27.32;43.07;98259.13;5139310;27;20070;-93
2021/07/19 08:51:05;;;;;;;16.65;9.85;;;;;;;27.73;44.00;98264.00;5137764;27;20039;-91
2021/07/19 08:53:32;;;;;;;9.07;7.30;;;;;;;28.53;41.52;98271.84;5138694;27;20508;-91
2021/07/19 08:55:59;;;;;;;9.77;6.40;;;;;;;28.67;40.05;98263.84;5139660;27;20395;-92
2021/07/19 08:58:26;;;;;;;9.27;6.90;;;;;;;29.07;39.28;98270.34;5138051;27;20095;-91
2021/07/19 09:00:53;;;;;;;8.65;6.85;;;;;;;29.17;39.70;98270.22;5136909;27;20118;-91
2021/07/19 09:03:19;;;;;;;17.00;7.53;;;;;;;28.25;41.02;98256.53;5138270;27;20039;-92
2021/07/19 09:05:47;;;;;;;13.27;6.82;;;;;;;28.22;41.19;98272.44;5139126;27;20045;-92
2021/07/19 09:08:13;;;;;;;10.82;7.50;;;;;;;28.67;40.77;98269.31;5138727;27;20027;-91
2021/07/19 09:10:39;;;;;;;10.20;7.03;;;;;;;28.95;40.62;98273.59;5138573;27;20047;-92
2021/07/19 09:13:07;;;;;;;8.48;6.70;;;;;;;28.47;40.94;98266.00;5137399;27;20039;-91
2021/07/19 09:15:35;;;;;;;7.80;6.47;;;;;;;28.93;40.01;98267.44;5137375;27;20035;-93
2021/07/19 09:18:01;;;;;;;10.17;6.37;;;;;;;28.80;41.02;98267.94;5138627;27;20034;-92
2021/07/19 09:20:30;;;;;;;10.07;7.45;;;;;;;27.74;41.17;98276.66;5139288;27;20070;-93
2021/07/19 09:22:55;;;;;;;11.27;7.60;;;;;;;26.64;44.34;98276.97;5140004;27;20039;-91
2021/07/19 09:25:21;;;;;;;11.95;7.85;;;;;;;26.53;42.73;98279.06;5138838;27;20067;-91
2021/07/19 09:27:57;;;;;;;10.35;7.82;;;;;;;26.93;42.99;98283.19;5138432;27;20114;-92
2021/07/19 09:30:27;;;;;;;12.27;7.43;;;;;;;28.26;39.87;98287.50;5132458;27;20044;-92
2021/07/19 09:33:01;;;;;;;11.18;6.97;;;;;;;27.60;40.70;98276.19;5138115;27;20031;-91
2021/07/19 09:35:28;;;;;;;12.15;7.78;;;;;;;27.31;41.62;98284.72;5138354;27;20443;-92
2021/07/19 09:37:57;;;;;;;10.00;7.45;;;;;;;27.20;41.14;98290.44;5138290;27;20039;-92
2021/07/19 09:40:27;;;;;;;9.52;7.53;;;;;;;27.69;40.59;98279.84;5138293;27;20046;-91
2021/07/19 09:42:54;;;;;;;9.98;7.10;;;;;;;27.69;40.48;98289.91;5137024;27;20080;-93
2021/07/19 09:45:28;;;;;;;9.88;7.20;;;;;;;28.31;40.03;98278.78;5135758;27;20066;-92
2021/07/19 09:48:02;;;;;;;11.25;7.43;;;;;;;28.47;39.17;98279.69;5138043;27;20043;-91
2021/07/19 09:50:41;;;;;;;9.60;6.97;;;;;;;27.56;40.98;98276.69;5138367;27;20032;-92
2021/07/19 09:53:07;;;;;;;11.85;7.50;;;;;;;27.15;42.91;98282.72;5130374;27;20370;-92
2021/07/19 09:55:34;;;;;;;11.10;8.20;;;;;;;26.82;42.61;98279.69;5138471;27;20122;-95
2021/07/19 09:58:01;;;;;;;10.40;7.22;;;;;;;28.20;40.71;98282.69;5138149;27;20038;-91
2021/07/19 10:00:30;;;;;;;11.80;7.38;;;;;;;28.73;39.30;98281.44;5137694;27;20126;-92
2021/07/19 10:02:58;;;;;;;10.35;7.32;;;;;;;29.25;38.29;98289.38;5138036;27;20067;-92
2021/07/19 10:05:26;;;;;;;10.32;7.45;;;;;;;29.74;37.34;98268.44;5137905;27;20046;-93
2021/07/19 10:07:51;;;;;;;11.95;7.35;;;;;;;29.51;37.88;98277.34;5137956;27;20091;-91
2021/07/19 10:10:20;;;;;;;10.68;7.22;;;;;;;29.22;38.26;98276.03;5136584;27;20046;-92
2021/07/19 10:12:58;;;;;;;14.25;8.52;;;;;;;28.62;39.16;98268.97;5137720;27;20408;-95
2021/07/19 10:15:24;;;;;;;9.07;7.33;;;;;;;27.88;41.48;98284.25;5135904;27;20461;-92
2021/07/19 10:17:54;;;;;;;15.73;7.95;;;;;;;27.89;41.44;98266.84;5137933;27;20054;-93
2021/07/19 10:20:20;;;;;;;11.25;7.78;;;;;;;27.50;41.62;98272.75;5139040;27;20115;-93
2021/07/19 10:22:46;;;;;;;11.07;7.70;;;;;;;28.07;40.29;98272.22;5138382;27;20015;-92
2021/07/19 10:25:12;;;;;;;10.82;7.53;;;;;;;27.87;39.86;98274.34;5138889;27;20037;-92
2021/07/19 10:27:39;;;;;;;11.40;7.43;;;;;;;28.67;38.52;98288.47;5137352;27;20471;-93
2021/07/19 10:30:07;;;;;;;11.30;7.68;;;;;;;28.87;37.71;98263.53;5136252;27;20039;-92
2021/07/19 10:32:35;;;;;;;14.60;8.27;;;;;;;28.81;37.63;98275.16;5138241;27;20050;-94
2021/07/19 10:35:04;;;;;;;12.10;7.30;;;;;;;29.03;37.70;98279.94;5137801;27;20551;-93
2021/07/19 10:37:35;;;;;;;12.15;7.25;;;;;;;28.91;38.66;98266.75;5138198;27;20066;-92
2021/07/19 10:40:08;;;;;;;12.95;7.03;;;;;;;29.64;36.55;98283.16;5136243;27;20045;-93
2021/07/19 10:42:36;;;;;;;10.20;7.80;;;;;;;29.16;37.68;98276.72;5137621;27;20055;-92
2021/07/19 10:45:10;;;;;;;9.85;7.40;;;;;;;29.30;37.64;98286.13;5136383;27;20425;-92
2021/07/19 10:50:50;;;;;;;12.20;7.50;;;;;;;29.79;36.83;98274.25;5169538;27;20721;-93
2021/07/19 10:53:17;;;;;;;;;;;;;;;29.35;37.63;98293.84;5146872;27;20411;-93
2021/07/19 10:55:43;;;;;;;11.68;7.78;;;;;;;27.80;40.78;98281.44;5148764;27;19979;-91
2021/07/19 10:58:16;;;;;;;10.82;7.38;;;;;;;28.51;39.85;98284.84;5152316;27;20038;-91
2021/07/19 11:00:45;;;;;;;12.18;7.93;;;;;;;29.10;38.68;98291.09;5146924;27;20536;-90
2021/07/19 11:03:12;;;;;;;13.68;7.70;;;;;;;29.67;37.30;98293.78;5149377;27;20540;-92
2021/07/19 11:05:39;;;;;;;11.93;7.45;;;;;;;29.22;38.00;98291.63;5144404;27;20131;-92
2021/07/19 11:08:18;;;;;;;11.80;7.60;;;;;;;29.69;38.03;98286.25;5147675;27;20091;-91
2021/07/19 11:10:45;;;;;;;10.13;7.20;;;;;;;29.64;37.42;98283.16;5144319;27;20120;-91
2021/07/19 11:13:11;;;;;;;13.35;7.80;;;;;;;29.29;38.04;98296.22;5144475;27;20118;-90
2021/07/19 11:15:39;;;;;;;11.07;7.57;;;;;;;29.08;37.91;98293.09;5144701;27;20039;-93
2021/07/19 11:18:15;;;;;;;11.80;8.50;;;;;;;28.46;39.26;98280.69;5146430;27;20039;-91
2021/07/19 11:20:43;;;;;;;12.18;7.93;;;;;;;29.05;38.73;98279.78;5147486;27;20055;-93
2021/07/19 11:23:11;;;;;;;10.48;7.18;;;;;;;29.13;37.74;98282.56;5138751;27;20092;-94
2021/07/19 11:25:41;;;;;;;11.25;7.90;;;;;;;29.33;37.99;98273.97;5142567;27;20070;-93
2021/07/19 11:28:15;;;;;;;12.02;7.30;;;;;;;29.44;37.04;98265.41;5148099;27;20035;-93
2021/07/19 11:30:40;;;;;;;13.35;7.47;;;;;;;28.90;37.03;98248.63;5154022;27;20043;-93